createdAt,value
2016-09-16T00:00:28.153Z,0
2016-09-16T00:01:28.589Z,0
2016-09-16T00:02:28.153Z,0
2016-09-16T00:03:28.399Z,0
2016-09-16T00:04:28.707Z,0
2016-09-16T00:05:28.131Z,0
2016-09-16T00:06:28.344Z,0
2016-09-16T00:07:28.246Z,0
2016-09-16T00:08:30.616Z,0
2016-09-16T00:09:28.486Z,0
2016-09-16T00:10:28.594Z,0
2016-09-16T00:11:29.524Z,0
2016-09-16T00:12:28.504Z,0
2016-09-16T00:13:28.142Z,0
2016-09-16T00:14:28.751Z,0
2016-09-16T00:15:28.158Z,0
2016-09-16T00:16:28.704Z,0
2016-09-16T00:17:28.199Z,0
2016-09-16T00:18:28.562Z,0
2016-09-16T00:19:28.670Z,0
2016-09-16T00:20:28.440Z,0
2016-09-16T00:21:28.854Z,0
2016-09-16T00:22:28.760Z,0
2016-09-16T00:23:28.264Z,0
2016-09-16T00:24:28.860Z,0
2016-09-16T00:25:28.180Z,0
2016-09-16T00:26:28.477Z,0
2016-09-16T00:27:28.216Z,0
2016-09-16T00:28:28.192Z,0
2016-09-16T00:29:28.984Z,0
2016-09-16T00:30:29.799Z,0
2016-09-16T00:31:28.183Z,0
2016-09-16T00:32:28.205Z,0
2016-09-16T00:33:28.509Z,0
2016-09-16T00:34:28.477Z,0
2016-09-16T00:35:28.177Z,0
2016-09-16T00:36:29.222Z,0
2016-09-16T00:37:28.187Z,0
2016-09-16T00:38:28.181Z,0
2016-09-16T00:39:28.216Z,0
2016-09-16T00:40:28.180Z,0
2016-09-16T00:41:29.095Z,0
2016-09-16T00:42:28.836Z,0
2016-09-16T00:43:28.190Z,0
2016-09-16T00:44:28.194Z,0
2016-09-16T00:45:28.170Z,0
2016-09-16T00:46:28.958Z,0
2016-09-16T00:47:28.671Z,0
2016-09-16T00:48:28.628Z,0
2016-09-16T00:49:28.169Z,0
2016-09-16T00:50:28.858Z,0
2016-09-16T00:51:28.967Z,0
2016-09-16T00:52:28.493Z,0
2016-09-16T00:53:28.212Z,0
2016-09-16T00:54:28.187Z,0
2016-09-16T00:55:29.502Z,0
2016-09-16T00:56:28.290Z,0
2016-09-16T00:57:28.968Z,0
2016-09-16T00:58:28.258Z,0
2016-09-16T00:59:28.201Z,0
2016-09-16T01:00:28.191Z,0
2016-09-16T01:01:28.216Z,0
2016-09-16T01:02:28.654Z,0
2016-09-16T01:03:28.224Z,0
2016-09-16T01:04:28.230Z,0
2016-09-16T01:05:28.204Z,0
2016-09-16T01:06:28.220Z,0
2016-09-16T01:07:28.197Z,0
2016-09-16T01:08:28.231Z,0
2016-09-16T01:09:28.241Z,0
2016-09-16T01:10:28.216Z,0
2016-09-16T01:11:28.275Z,0
2016-09-16T01:12:28.204Z,0
2016-09-16T01:13:28.214Z,0
2016-09-16T01:14:28.672Z,0
2016-09-16T01:15:28.242Z,0
2016-09-16T01:16:28.246Z,0
2016-09-16T01:17:28.236Z,0
2016-09-16T01:18:28.638Z,0
2016-09-16T01:19:28.220Z,0
2016-09-16T01:20:28.598Z,0
2016-09-16T01:21:28.226Z,0
2016-09-16T01:22:28.839Z,0
2016-09-16T01:23:28.255Z,0
2016-09-16T01:24:28.541Z,0
2016-09-16T01:25:28.670Z,0
2016-09-16T01:26:28.232Z,0
2016-09-16T01:27:28.219Z,0
2016-09-16T01:28:29.045Z,0
2016-09-16T01:29:28.899Z,0
2016-09-16T01:30:28.239Z,0
2016-09-16T01:31:28.244Z,0
2016-09-16T01:32:28.249Z,0
2016-09-16T01:33:28.235Z,0
2016-09-16T01:34:28.233Z,0
2016-09-16T01:35:28.280Z,0
2016-09-16T01:36:28.245Z,0
2016-09-16T01:37:28.238Z,0
2016-09-16T01:38:28.783Z,0
2016-09-16T01:39:28.229Z,0
2016-09-16T01:40:28.240Z,0
2016-09-16T01:41:28.421Z,0
2016-09-16T01:42:28.244Z,0
2016-09-16T01:43:28.264Z,0
2016-09-16T01:44:28.249Z,0
2016-09-16T01:45:28.252Z,0
2016-09-16T01:46:28.252Z,0
2016-09-16T01:47:28.372Z,0
2016-09-16T01:48:28.265Z,0
2016-09-16T01:49:28.242Z,0
2016-09-16T01:50:28.675Z,0
2016-09-16T01:51:28.243Z,0
2016-09-16T01:52:28.289Z,0
2016-09-16T01:53:28.243Z,0
2016-09-16T01:54:28.264Z,0
2016-09-16T01:55:28.254Z,0
2016-09-16T01:56:28.245Z,0
2016-09-16T01:57:28.343Z,0
2016-09-16T01:58:28.252Z,0
2016-09-16T01:59:28.264Z,0
2016-09-16T02:00:28.258Z,0
2016-09-16T02:01:28.274Z,0
2016-09-16T02:02:28.251Z,0
2016-09-16T02:03:28.266Z,0
2016-09-16T02:04:28.249Z,0
2016-09-16T02:05:28.557Z,0
2016-09-16T02:06:28.263Z,0
2016-09-16T02:07:28.503Z,0
2016-09-16T02:08:28.302Z,0
2016-09-16T02:09:28.292Z,0
2016-09-16T02:10:28.266Z,0
2016-09-16T02:11:28.352Z,0
2016-09-16T02:12:28.269Z,0
2016-09-16T02:13:28.933Z,0
2016-09-16T02:14:28.279Z,0
2016-09-16T02:15:28.263Z,0
2016-09-16T02:16:28.323Z,0
2016-09-16T02:17:28.269Z,0
2016-09-16T02:18:28.702Z,0
2016-09-16T02:19:28.739Z,0
2016-09-16T02:20:28.655Z,0
2016-09-16T02:21:28.574Z,0
2016-09-16T02:22:28.274Z,0
2016-09-16T02:23:28.265Z,0
2016-09-16T02:24:28.262Z,0
2016-09-16T02:25:29.405Z,0
2016-09-16T02:26:28.309Z,0
2016-09-16T02:27:29.014Z,0
2016-09-16T02:28:28.277Z,0
2016-09-16T02:29:29.539Z,0
2016-09-16T02:30:28.282Z,0
2016-09-16T02:31:28.279Z,0
2016-09-16T02:32:28.269Z,0
2016-09-16T02:33:28.774Z,0
2016-09-16T02:34:29.107Z,0
2016-09-16T02:35:28.787Z,0
2016-09-16T02:36:28.273Z,0
2016-09-16T02:37:29.603Z,0
2016-09-16T02:38:28.291Z,0
2016-09-16T02:39:28.286Z,0
2016-09-16T02:40:29.247Z,0
2016-09-16T02:41:28.291Z,0
2016-09-16T02:42:28.843Z,0
2016-09-16T02:43:28.368Z,0
2016-09-16T02:44:28.288Z,0
2016-09-16T02:45:28.265Z,0
2016-09-16T02:46:28.795Z,0
2016-09-16T02:47:28.306Z,0
2016-09-16T02:48:28.316Z,0
2016-09-16T02:49:28.308Z,0
2016-09-16T02:50:29.013Z,0
2016-09-16T02:51:28.297Z,0
2016-09-16T02:52:28.326Z,0
2016-09-16T02:53:29.284Z,0
2016-09-16T02:54:29.333Z,0
2016-09-16T02:55:28.331Z,0
2016-09-16T02:56:28.290Z,0
2016-09-16T02:57:28.319Z,0
2016-09-16T02:58:29.640Z,0
2016-09-16T02:59:28.300Z,0
2016-09-16T03:00:28.318Z,0
2016-09-16T03:01:28.768Z,0
2016-09-16T03:02:29.008Z,0
2016-09-16T03:03:28.898Z,0
2016-09-16T03:04:28.345Z,0
2016-09-16T03:05:28.340Z,0
2016-09-16T03:06:28.328Z,0
2016-09-16T03:07:28.338Z,0
2016-09-16T03:08:28.329Z,0
2016-09-16T03:09:28.309Z,0
2016-09-16T03:10:28.332Z,0
2016-09-16T03:11:28.323Z,0
2016-09-16T03:12:28.346Z,0
2016-09-16T03:13:28.353Z,0
2016-09-16T03:14:28.345Z,0
2016-09-16T03:15:28.332Z,0
2016-09-16T03:16:28.331Z,0
2016-09-16T03:17:28.348Z,0
2016-09-16T03:18:28.356Z,0
2016-09-16T03:19:28.346Z,0
2016-09-16T03:20:28.329Z,0
2016-09-16T03:21:28.352Z,0
2016-09-16T03:22:28.329Z,0
2016-09-16T03:23:28.349Z,0
2016-09-16T03:24:28.323Z,0
2016-09-16T03:25:28.358Z,0
2016-09-16T03:26:28.338Z,0
2016-09-16T03:27:28.362Z,0
2016-09-16T03:28:28.312Z,0
2016-09-16T03:29:28.351Z,0
2016-09-16T03:30:28.340Z,0
2016-09-16T03:31:28.329Z,0
2016-09-16T03:32:28.367Z,0
2016-09-16T03:33:28.348Z,0
2016-09-16T03:34:28.352Z,0
2016-09-16T03:35:28.345Z,0
2016-09-16T03:36:28.345Z,0
2016-09-16T03:37:28.356Z,0
2016-09-16T03:38:28.359Z,0
2016-09-16T03:39:28.349Z,0
2016-09-16T03:40:28.367Z,0
2016-09-16T03:41:28.354Z,0
2016-09-16T03:42:28.360Z,0
2016-09-16T03:43:28.374Z,0
2016-09-16T03:44:28.375Z,0
2016-09-16T03:45:28.354Z,0
2016-09-16T03:46:28.374Z,0
2016-09-16T03:47:28.374Z,0
2016-09-16T03:48:28.374Z,0
2016-09-16T03:49:28.395Z,0
2016-09-16T03:50:28.399Z,0
2016-09-16T03:51:28.371Z,0
2016-09-16T03:52:28.363Z,0
2016-09-16T03:53:28.355Z,0
2016-09-16T03:54:28.353Z,0
2016-09-16T03:55:28.368Z,0
2016-09-16T03:56:28.394Z,0
2016-09-16T03:57:28.346Z,0
2016-09-16T03:58:28.381Z,0
2016-09-16T03:59:28.375Z,0
2016-09-16T04:00:28.377Z,0
2016-09-16T04:01:28.388Z,0
2016-09-16T04:02:28.376Z,0
2016-09-16T04:03:28.373Z,0
2016-09-16T04:04:28.372Z,0
2016-09-16T04:05:28.412Z,0
2016-09-16T04:06:28.371Z,0
2016-09-16T04:07:28.369Z,0
2016-09-16T04:08:28.384Z,0
2016-09-16T04:09:28.384Z,0
2016-09-16T04:10:29.312Z,0
2016-09-16T04:11:28.936Z,0
2016-09-16T04:12:28.970Z,0
2016-09-16T04:13:29.092Z,0
2016-09-16T04:14:28.967Z,0
2016-09-16T04:15:28.871Z,0
2016-09-16T04:16:28.377Z,0
2016-09-16T04:17:29.004Z,0
2016-09-16T04:18:28.396Z,0
2016-09-16T04:19:28.733Z,0
2016-09-16T04:20:28.409Z,0
2016-09-16T04:21:28.851Z,0
2016-09-16T04:22:28.405Z,0
2016-09-16T04:23:28.938Z,0
2016-09-16T04:24:28.416Z,0
2016-09-16T04:25:28.954Z,0
2016-09-16T04:26:28.416Z,0
2016-09-16T04:27:28.414Z,0
2016-09-16T04:28:28.420Z,0
2016-09-16T04:29:28.397Z,0
2016-09-16T04:30:28.420Z,0
2016-09-16T04:31:28.433Z,4
2016-09-16T04:32:28.403Z,4
2016-09-16T04:33:28.427Z,0
2016-09-16T04:34:28.418Z,0
2016-09-16T04:35:28.430Z,4
2016-09-16T04:36:28.434Z,4
2016-09-16T04:37:28.542Z,4
2016-09-16T04:38:28.435Z,4
2016-09-16T04:39:28.429Z,4
2016-09-16T04:40:28.414Z,8
2016-09-16T04:41:28.414Z,8
2016-09-16T04:42:28.451Z,8
2016-09-16T04:43:28.414Z,12
2016-09-16T04:44:28.418Z,12
2016-09-16T04:45:28.413Z,16
2016-09-16T04:46:28.427Z,20
2016-09-16T04:47:28.418Z,20
2016-09-16T04:48:28.428Z,28
2016-09-16T04:49:28.432Z,28
2016-09-16T04:50:28.448Z,36
2016-09-16T04:51:28.421Z,40
2016-09-16T04:52:28.418Z,48
2016-09-16T04:53:28.432Z,56
2016-09-16T04:54:28.499Z,64
2016-09-16T04:55:28.428Z,76
2016-09-16T04:56:28.512Z,80
2016-09-16T04:57:28.438Z,84
2016-09-16T04:58:28.410Z,96
2016-09-16T04:59:28.474Z,104
2016-09-16T05:00:28.453Z,116
2016-09-16T05:01:28.559Z,128
2016-09-16T05:02:28.519Z,148
2016-09-16T05:03:28.457Z,168
2016-09-16T05:04:28.428Z,196
2016-09-16T05:05:28.410Z,208
2016-09-16T05:06:28.403Z,212
2016-09-16T05:07:28.404Z,212
2016-09-16T05:08:28.447Z,216
2016-09-16T05:09:28.455Z,228
2016-09-16T05:10:28.428Z,244
2016-09-16T05:11:28.491Z,264
2016-09-16T05:12:28.464Z,288
2016-09-16T05:13:28.705Z,316
2016-09-16T05:14:28.633Z,344
2016-09-16T05:15:28.777Z,380
2016-09-16T05:16:28.720Z,420
2016-09-16T05:17:28.471Z,452
2016-09-16T05:18:28.461Z,492
2016-09-16T05:19:28.452Z,528
2016-09-16T05:20:28.471Z,564
2016-09-16T05:21:28.464Z,608
2016-09-16T05:22:28.483Z,652
2016-09-16T05:23:28.451Z,692
2016-09-16T05:24:28.430Z,728
2016-09-16T05:25:28.465Z,764
2016-09-16T05:26:28.443Z,804
2016-09-16T05:27:28.448Z,836
2016-09-16T05:28:28.439Z,864
2016-09-16T05:29:28.459Z,900
2016-09-16T05:30:28.464Z,932
2016-09-16T05:31:28.513Z,972
2016-09-16T05:32:28.449Z,1016
2016-09-16T05:33:28.483Z,1060
2016-09-16T05:34:28.461Z,1112
2016-09-16T05:35:28.577Z,1168
2016-09-16T05:36:28.476Z,1232
2016-09-16T05:37:28.487Z,1296
2016-09-16T05:38:29.073Z,1360
2016-09-16T05:39:28.449Z,1420
2016-09-16T05:40:28.484Z,1484
2016-09-16T05:41:28.463Z,1560
2016-09-16T05:42:28.587Z,1628
2016-09-16T05:43:28.475Z,1688
2016-09-16T05:44:29.163Z,1760
2016-09-16T05:45:28.497Z,1828
2016-09-16T05:46:28.563Z,1888
2016-09-16T05:47:28.465Z,1932
2016-09-16T05:48:28.496Z,1976
2016-09-16T05:49:28.485Z,2016
2016-09-16T05:50:28.500Z,2056
2016-09-16T05:51:28.535Z,2104
2016-09-16T05:52:28.511Z,2156
2016-09-16T05:53:28.521Z,2212
2016-09-16T05:54:28.498Z,2276
2016-09-16T05:55:28.589Z,2336
2016-09-16T05:56:28.519Z,2400
2016-09-16T05:57:28.590Z,2460
2016-09-16T05:58:28.494Z,2536
2016-09-16T05:59:28.503Z,2612
2016-09-16T06:00:28.471Z,2720
2016-09-16T06:01:28.480Z,2864
2016-09-16T06:02:28.637Z,3016
2016-09-16T06:03:28.513Z,3176
2016-09-16T06:04:28.511Z,3360
2016-09-16T06:05:28.551Z,3528
2016-09-16T06:06:28.538Z,3684
2016-09-16T06:07:28.527Z,3820
2016-09-16T06:08:28.490Z,3968
2016-09-16T06:09:28.482Z,4104
2016-09-16T06:10:28.509Z,4220
2016-09-16T06:11:28.494Z,4348
2016-09-16T06:12:28.495Z,4452
2016-09-16T06:13:28.581Z,4588
2016-09-16T06:14:28.519Z,4676
2016-09-16T06:15:28.522Z,4728
2016-09-16T06:16:28.755Z,4800
2016-09-16T06:17:32.861Z,4864
2016-09-16T06:18:28.485Z,4976
2016-09-16T06:19:28.479Z,5120
2016-09-16T06:20:28.597Z,5292
2016-09-16T06:21:28.598Z,5528
2016-09-16T06:22:28.663Z,5792
2016-09-16T06:23:28.628Z,6076
2016-09-16T06:24:28.487Z,6352
2016-09-16T06:25:28.497Z,6560
2016-09-16T06:26:28.505Z,6688
2016-09-16T06:27:28.501Z,6724
2016-09-16T06:28:28.509Z,6784
2016-09-16T06:29:28.775Z,6524
2016-09-16T06:30:28.517Z,6260
2016-09-16T06:31:28.528Z,6224
2016-09-16T06:32:28.528Z,6080
2016-09-16T06:33:28.525Z,5796
2016-09-16T06:34:28.520Z,5792
2016-09-16T06:35:28.549Z,5724
2016-09-16T06:36:28.539Z,5588
2016-09-16T06:37:28.525Z,5780
2016-09-16T06:38:28.593Z,5600
2016-09-16T06:39:28.510Z,5084
2016-09-16T06:40:28.543Z,5128
2016-09-16T06:41:28.531Z,5432
2016-09-16T06:42:28.515Z,5600
2016-09-16T06:43:29.564Z,6580
2016-09-16T06:44:29.708Z,8368
2016-09-16T06:45:28.505Z,8356
2016-09-16T06:46:28.494Z,8748
2016-09-16T06:47:28.560Z,8268
2016-09-16T06:48:28.509Z,7424
2016-09-16T06:49:28.516Z,7012
2016-09-16T06:50:29.595Z,6816
2016-09-16T06:51:29.523Z,6212
2016-09-16T06:52:28.523Z,5836
2016-09-16T06:53:28.805Z,5948
2016-09-16T06:54:29.359Z,5372
2016-09-16T06:55:28.533Z,4952
2016-09-16T06:56:29.032Z,5276
2016-09-16T06:57:29.369Z,5920
2016-09-16T06:58:29.219Z,5788
2016-09-16T06:59:28.554Z,5892
2016-09-16T07:00:28.577Z,5732
2016-09-16T07:01:28.549Z,5544
2016-09-16T07:02:29.794Z,5928
2016-09-16T07:03:28.565Z,5764
2016-09-16T07:04:28.549Z,5416
2016-09-16T07:05:28.517Z,5496
2016-09-16T07:06:28.548Z,5712
2016-09-16T07:07:28.599Z,6616
2016-09-16T07:08:28.533Z,7172
2016-09-16T07:09:28.570Z,7764
2016-09-16T07:10:28.594Z,8700
2016-09-16T07:11:28.563Z,9456
2016-09-16T07:12:28.545Z,8716
2016-09-16T07:13:29.153Z,9548
2016-09-16T07:14:28.551Z,9588
2016-09-16T07:15:28.601Z,8648
2016-09-16T07:16:28.548Z,8572
2016-09-16T07:17:28.590Z,9276
2016-09-16T07:18:28.664Z,9400
2016-09-16T07:19:28.595Z,8172
2016-09-16T07:20:28.839Z,6952
2016-09-16T07:21:28.558Z,6160
2016-09-16T07:22:28.897Z,6136
2016-09-16T07:23:29.017Z,5680
2016-09-16T07:24:29.322Z,5048
2016-09-16T07:25:28.594Z,4940
2016-09-16T07:26:29.105Z,4908
2016-09-16T07:27:28.622Z,4884
2016-09-16T07:28:29.067Z,4856
2016-09-16T07:29:28.591Z,4888
2016-09-16T07:30:28.619Z,4924
2016-09-16T07:31:28.608Z,4596
2016-09-16T07:32:28.737Z,4236
2016-09-16T07:33:29.356Z,4232
2016-09-16T07:34:28.622Z,4688
2016-09-16T07:35:28.577Z,4668
2016-09-16T07:36:28.592Z,4676
2016-09-16T07:37:28.573Z,5056
2016-09-16T07:38:29.184Z,5360
2016-09-16T07:39:28.611Z,6136
2016-09-16T07:40:29.661Z,6208
2016-09-16T07:41:28.575Z,5640
2016-09-16T07:42:29.246Z,5864
2016-09-16T07:43:28.652Z,6312
2016-09-16T07:44:29.357Z,9528
2016-09-16T07:45:28.747Z,6776
2016-09-16T07:46:28.665Z,6052
2016-09-16T07:47:29.212Z,6812
2016-09-16T07:48:29.190Z,7440
2016-09-16T07:49:28.624Z,8856
2016-09-16T07:50:28.670Z,8048
2016-09-16T07:51:29.093Z,7668
2016-09-16T07:52:28.658Z,8248
2016-09-16T07:53:28.633Z,9432
2016-09-16T07:54:28.619Z,8884
2016-09-16T07:55:28.651Z,7848
2016-09-16T07:56:28.644Z,9164
2016-09-16T07:57:29.390Z,8996
2016-09-16T07:58:28.574Z,8696
2016-09-16T07:59:29.301Z,9040
2016-09-16T08:00:29.039Z,8256
2016-09-16T08:01:29.589Z,7896
2016-09-16T08:02:28.606Z,8988
2016-09-16T08:03:28.647Z,9492
2016-09-16T08:04:28.707Z,8772
2016-09-16T08:05:28.792Z,9048
2016-09-16T08:06:28.623Z,8980
2016-09-16T08:07:28.641Z,8764
2016-09-16T08:08:28.746Z,9032
2016-09-16T08:09:28.621Z,9044
2016-09-16T08:10:28.604Z,7948
2016-09-16T08:11:29.928Z,7856
2016-09-16T08:12:28.615Z,7920
2016-09-16T08:13:28.594Z,7600
2016-09-16T08:14:28.600Z,6824
2016-09-16T08:15:28.635Z,4980
2016-09-16T08:16:28.627Z,4956
2016-09-16T08:17:28.620Z,5228
2016-09-16T08:18:28.617Z,5700
2016-09-16T08:19:28.590Z,6176
2016-09-16T08:20:28.622Z,6296
2016-09-16T08:21:28.615Z,6492
2016-09-16T08:22:28.613Z,6856
2016-09-16T08:23:28.613Z,7344
2016-09-16T08:24:28.609Z,7500
2016-09-16T08:25:28.628Z,7212
2016-09-16T08:26:28.592Z,6356
2016-09-16T08:27:28.615Z,6124
2016-09-16T08:28:29.047Z,6144
2016-09-16T08:29:28.629Z,6688
2016-09-16T08:30:28.662Z,7124
2016-09-16T08:31:28.628Z,7348
2016-09-16T08:32:28.890Z,7360
2016-09-16T08:33:29.015Z,7428
2016-09-16T08:34:28.605Z,7548
2016-09-16T08:35:28.657Z,7668
2016-09-16T08:36:29.269Z,7384
2016-09-16T08:37:28.952Z,7168
2016-09-16T08:38:28.645Z,7532
2016-09-16T08:39:28.663Z,8508
2016-09-16T08:40:28.757Z,9260
2016-09-16T08:41:28.629Z,10308
2016-09-16T08:42:28.639Z,11180
2016-09-16T08:43:29.672Z,11680
2016-09-16T08:44:29.682Z,12264
2016-09-16T08:45:29.625Z,12368
2016-09-16T08:46:28.646Z,12264
2016-09-16T08:47:28.639Z,11136
2016-09-16T08:48:28.663Z,10644
2016-09-16T08:49:28.702Z,11224
2016-09-16T08:50:28.650Z,11992
2016-09-16T08:51:28.623Z,12116
2016-09-16T08:52:28.965Z,12168
2016-09-16T08:53:28.709Z,12508
2016-09-16T08:54:28.643Z,13108
2016-09-16T08:55:28.650Z,13036
2016-09-16T08:56:29.050Z,12888
2016-09-16T08:57:28.738Z,12220
2016-09-16T08:58:28.930Z,11152
2016-09-16T08:59:29.495Z,9740
2016-09-16T09:00:29.489Z,9192
2016-09-16T09:01:28.693Z,9524
2016-09-16T09:02:28.655Z,9664
2016-09-16T09:03:28.643Z,9672
2016-09-16T09:04:28.656Z,9552
2016-09-16T09:05:29.465Z,9548
2016-09-16T09:06:28.679Z,10144
2016-09-16T09:07:28.658Z,10488
2016-09-16T09:08:29.072Z,10752
2016-09-16T09:09:28.682Z,11152
2016-09-16T09:10:28.686Z,11952
2016-09-16T09:11:28.721Z,12320
2016-09-16T09:12:28.692Z,12468
2016-09-16T09:13:29.706Z,12996
2016-09-16T09:14:28.647Z,13784
2016-09-16T09:15:28.672Z,14236
2016-09-16T09:16:28.705Z,14600
2016-09-16T09:17:28.685Z,15004
2016-09-16T09:18:30.089Z,15264
2016-09-16T09:19:28.679Z,15312
2016-09-16T09:20:28.727Z,15464
2016-09-16T09:21:28.678Z,15424
2016-09-16T09:22:28.705Z,16024
2016-09-16T09:23:28.676Z,16392
2016-09-16T09:24:28.691Z,16544
2016-09-16T09:25:28.733Z,17724
2016-09-16T09:26:29.081Z,17964
2016-09-16T09:27:28.683Z,18880
2016-09-16T09:28:30.672Z,19232
2016-09-16T09:29:28.699Z,18236
2016-09-16T09:30:28.670Z,16876
2016-09-16T09:31:28.720Z,16708
2016-09-16T09:32:29.308Z,15956
2016-09-16T09:33:28.706Z,16752
2016-09-16T09:34:28.725Z,16204
2016-09-16T09:35:28.705Z,17232
2016-09-16T09:36:28.741Z,15300
2016-09-16T09:37:28.743Z,15316
2016-09-16T09:38:28.971Z,15704
2016-09-16T09:39:29.293Z,13312
2016-09-16T09:40:28.662Z,13172
2016-09-16T09:41:29.461Z,13480
2016-09-16T09:42:28.706Z,12756
2016-09-16T09:43:28.705Z,12660
2016-09-16T09:44:28.729Z,14276
2016-09-16T09:45:30.007Z,15392
2016-09-16T09:46:29.398Z,15372
2016-09-16T09:47:28.688Z,13920
2016-09-16T09:48:28.729Z,13316
2016-09-16T09:49:29.447Z,13252
2016-09-16T09:50:29.402Z,14192
2016-09-16T09:51:28.724Z,15836
2016-09-16T09:52:28.740Z,16288
2016-09-16T09:53:28.746Z,16788
2016-09-16T09:54:28.777Z,15064
2016-09-16T09:55:28.703Z,16360
2016-09-16T09:56:28.711Z,13940
2016-09-16T09:57:28.711Z,11044
2016-09-16T09:58:28.796Z,11984
2016-09-16T09:59:28.726Z,13160
2016-09-16T10:00:28.766Z,13720
2016-09-16T10:01:28.713Z,11788
2016-09-16T10:02:28.781Z,13056
2016-09-16T10:03:28.730Z,11380
2016-09-16T10:04:28.864Z,10148
2016-09-16T10:05:28.752Z,7660
2016-09-16T10:06:28.714Z,6136
2016-09-16T10:07:28.722Z,6128
2016-09-16T10:08:28.704Z,5756
2016-09-16T10:09:28.713Z,5140
2016-09-16T10:10:28.760Z,5652
2016-09-16T10:11:28.772Z,6232
2016-09-16T10:12:28.742Z,6936
2016-09-16T10:13:28.783Z,7424
2016-09-16T10:14:28.755Z,8140
2016-09-16T10:15:28.759Z,7628
2016-09-16T10:16:28.756Z,8404
2016-09-16T10:17:28.759Z,7332
2016-09-16T10:18:28.727Z,6736
2016-09-16T10:19:28.783Z,6552
2016-09-16T10:20:28.760Z,6392
2016-09-16T10:21:28.754Z,6848
2016-09-16T10:22:28.740Z,7152
2016-09-16T10:23:28.744Z,6936
2016-09-16T10:24:28.759Z,6956
2016-09-16T10:25:28.843Z,7480
2016-09-16T10:26:28.748Z,7004
2016-09-16T10:27:28.742Z,7232
2016-09-16T10:28:28.747Z,6380
2016-09-16T10:29:28.739Z,5948
2016-09-16T10:30:28.804Z,6660
2016-09-16T10:31:28.754Z,6772
2016-09-16T10:32:28.739Z,7216
2016-09-16T10:33:28.736Z,8000
2016-09-16T10:34:28.796Z,7484
2016-09-16T10:35:28.776Z,7132
2016-09-16T10:36:28.782Z,7276
2016-09-16T10:37:29.479Z,8136
2016-09-16T10:38:28.810Z,7972
2016-09-16T10:39:28.781Z,8484
2016-09-16T10:40:28.765Z,9136
2016-09-16T10:41:28.890Z,9700
2016-09-16T10:42:28.779Z,10972
2016-09-16T10:43:28.771Z,10812
2016-09-16T10:44:28.769Z,9564
2016-09-16T10:45:28.748Z,9124
2016-09-16T10:46:28.850Z,9668
2016-09-16T10:47:29.504Z,10960
2016-09-16T10:48:28.821Z,10380
2016-09-16T10:49:28.786Z,7876
2016-09-16T10:50:28.773Z,7608
2016-09-16T10:51:28.781Z,7404
2016-09-16T10:52:28.773Z,6400
2016-09-16T10:53:28.807Z,6512
2016-09-16T10:54:28.769Z,7940
2016-09-16T10:55:28.769Z,7148
2016-09-16T10:56:28.797Z,6372
2016-09-16T10:57:28.794Z,6280
2016-09-16T10:58:28.781Z,6952
2016-09-16T10:59:28.820Z,6100
2016-09-16T11:00:28.770Z,6184
2016-09-16T11:01:28.808Z,8160
2016-09-16T11:02:28.768Z,8868
2016-09-16T11:03:28.785Z,8836
2016-09-16T11:04:28.822Z,7424
2016-09-16T11:05:28.769Z,7424
2016-09-16T11:06:28.792Z,10320
2016-09-16T11:07:28.799Z,11712
2016-09-16T11:08:28.801Z,10448
2016-09-16T11:09:28.785Z,8488
2016-09-16T11:10:28.852Z,8976
2016-09-16T11:11:28.782Z,10324
2016-09-16T11:12:28.785Z,13308
2016-09-16T11:13:28.849Z,12228
2016-09-16T11:14:28.815Z,10892
2016-09-16T11:15:29.100Z,9900
2016-09-16T11:16:28.798Z,10220
2016-09-16T11:17:28.785Z,10468
2016-09-16T11:18:28.797Z,11228
2016-09-16T11:19:28.791Z,12396
2016-09-16T11:20:28.807Z,12680
2016-09-16T11:21:28.788Z,11692
2016-09-16T11:22:28.837Z,11000
2016-09-16T11:23:28.818Z,11236
2016-09-16T11:24:28.810Z,11656
2016-09-16T11:25:28.805Z,11928
2016-09-16T11:26:28.817Z,12108
2016-09-16T11:27:28.801Z,12328
2016-09-16T11:28:28.835Z,12220
2016-09-16T11:29:28.807Z,11892
2016-09-16T11:30:28.814Z,11876
2016-09-16T11:31:28.805Z,11124
2016-09-16T11:32:28.847Z,10436
2016-09-16T11:33:28.846Z,9900
2016-09-16T11:34:28.802Z,9464
2016-09-16T11:35:28.841Z,9464
2016-09-16T11:36:28.826Z,9420
2016-09-16T11:37:28.882Z,9156
2016-09-16T11:38:28.869Z,9128
2016-09-16T11:39:28.835Z,9392
2016-09-16T11:40:28.830Z,9624
2016-09-16T11:41:28.838Z,9988
2016-09-16T11:42:28.818Z,10128
2016-09-16T11:43:28.841Z,10276
2016-09-16T11:44:29.042Z,10512
2016-09-16T11:45:28.833Z,10920
2016-09-16T11:46:28.831Z,11556
2016-09-16T11:47:28.824Z,12304
2016-09-16T11:48:28.849Z,13112
2016-09-16T11:49:28.825Z,14012
2016-09-16T11:50:28.843Z,14884
2016-09-16T11:51:28.837Z,15556
2016-09-16T11:52:28.826Z,16192
2016-09-16T11:53:28.836Z,16720
2016-09-16T11:54:28.857Z,17108
2016-09-16T11:55:28.871Z,17420
2016-09-16T11:56:28.853Z,17752
2016-09-16T11:57:28.892Z,17668
2016-09-16T11:58:28.835Z,17488
2016-09-16T11:59:28.927Z,17172
2016-09-16T12:00:28.855Z,17192
2016-09-16T12:01:28.855Z,17192
2016-09-16T12:02:28.854Z,17520
2016-09-16T12:03:28.835Z,16420
2016-09-16T12:04:28.877Z,15676
2016-09-16T12:05:28.871Z,14932
2016-09-16T12:06:28.872Z,14100
2016-09-16T12:07:28.846Z,14124
2016-09-16T12:08:28.863Z,13532
2016-09-16T12:09:28.852Z,13496
2016-09-16T12:10:28.857Z,12452
2016-09-16T12:11:28.861Z,11468
2016-09-16T12:12:28.900Z,10532
2016-09-16T12:13:28.877Z,10184
2016-09-16T12:14:29.836Z,10408
2016-09-16T12:15:28.925Z,12312
2016-09-16T12:16:28.896Z,12336
2016-09-16T12:17:28.860Z,11772
2016-09-16T12:18:29.219Z,10216
2016-09-16T12:19:28.841Z,10336
2016-09-16T12:20:28.851Z,10724
2016-09-16T12:21:28.916Z,10772
2016-09-16T12:22:28.858Z,11768
2016-09-16T12:23:28.857Z,9944
2016-09-16T12:24:28.921Z,10952
2016-09-16T12:25:28.870Z,11844
2016-09-16T12:26:28.906Z,9792
2016-09-16T12:27:28.868Z,9400
2016-09-16T12:28:28.877Z,8944
2016-09-16T12:29:28.924Z,8904
2016-09-16T12:30:28.952Z,8028
2016-09-16T12:31:28.966Z,8288
2016-09-16T12:32:29.562Z,9196
2016-09-16T12:33:28.906Z,11144
2016-09-16T12:34:28.902Z,13444
2016-09-16T12:35:28.889Z,14016
2016-09-16T12:36:28.874Z,12012
2016-09-16T12:37:28.906Z,10992
2016-09-16T12:38:28.945Z,8604
2016-09-16T12:39:28.896Z,8492
2016-09-16T12:40:28.896Z,9596
2016-09-16T12:41:28.962Z,9920
2016-09-16T12:42:28.967Z,9876
2016-09-16T12:43:29.011Z,9580
2016-09-16T12:44:29.014Z,10116
2016-09-16T12:45:28.940Z,10116
2016-09-16T12:46:28.958Z,9952
2016-09-16T12:47:28.886Z,10128
2016-09-16T12:48:28.892Z,10820
2016-09-16T12:49:28.884Z,10552
2016-09-16T12:50:28.899Z,10256
2016-09-16T12:51:28.897Z,9480
2016-09-16T12:52:28.912Z,9396
2016-09-16T12:53:28.918Z,8772
2016-09-16T12:54:28.918Z,8440
2016-09-16T12:55:28.943Z,8600
2016-09-16T12:56:28.976Z,8936
2016-09-16T12:57:28.938Z,9172
2016-09-16T12:58:28.902Z,9440
2016-09-16T12:59:28.950Z,9692
2016-09-16T13:00:28.916Z,9740
2016-09-16T13:01:28.973Z,9580
2016-09-16T13:02:28.991Z,9032
2016-09-16T13:03:28.892Z,10132
2016-09-16T13:04:28.953Z,10120
2016-09-16T13:05:28.900Z,9900
2016-09-16T13:06:28.915Z,8728
2016-09-16T13:07:28.925Z,9248
2016-09-16T13:08:28.920Z,9280
2016-09-16T13:09:28.943Z,8956
2016-09-16T13:10:28.944Z,8292
2016-09-16T13:11:28.945Z,8228
2016-09-16T13:12:28.911Z,8368
2016-09-16T13:13:28.988Z,8192
2016-09-16T13:14:28.913Z,7812
2016-09-16T13:15:28.932Z,7944
2016-09-16T13:16:28.973Z,8308
2016-09-16T13:17:28.980Z,7644
2016-09-16T13:18:28.967Z,6904
2016-09-16T13:19:28.995Z,6860
2016-09-16T13:20:28.922Z,6704
2016-09-16T13:21:28.955Z,6224
2016-09-16T13:22:29.000Z,5568
2016-09-16T13:23:28.956Z,5056
2016-09-16T13:24:28.964Z,4724
2016-09-16T13:25:28.962Z,5900
2016-09-16T13:26:29.015Z,7436
2016-09-16T13:27:29.023Z,8068
2016-09-16T13:28:28.956Z,7848
2016-09-16T13:29:28.953Z,7184
2016-09-16T13:30:28.951Z,6876
2016-09-16T13:31:28.956Z,7332
2016-09-16T13:32:29.011Z,7680
2016-09-16T13:33:28.937Z,8156
2016-09-16T13:34:28.940Z,8032
2016-09-16T13:35:28.940Z,7500
2016-09-16T13:36:28.964Z,7792
2016-09-16T13:37:28.973Z,8892
2016-09-16T13:38:28.979Z,10172
2016-09-16T13:39:28.970Z,11092
2016-09-16T13:40:28.967Z,11840
2016-09-16T13:41:28.965Z,12256
2016-09-16T13:42:29.153Z,12248
2016-09-16T13:43:29.168Z,13088